Time;durP1;ratioP1;P1;durP2;ratioP2;P2;SDS_P1;SDS_P2;PMS_P1;PMS_P2;Temp;Humidity;BMP_temperature;BMP_pressure;BME280_temperature;BME280_humidity;BME280_pressure;Samples;Min_cycle;Max_cycle;Signal;HPM_P1;HPM_P2
2023/05/16 00:00:40;;;;;;;;;;;;;;;;;;4973769;28;19953;-76
2023/05/16 00:03:06;;;;;;;;;;;;;;;;;;4970848;28;19918;-77
2023/05/16 00:05:34;;;;;;;;;;;;;;;;;;4997488;22;20308;-77
2023/05/16 00:08:03;;;;;;;;;;;;;;;;;;4984648;28;19921;-75
2023/05/16 00:10:28;;;;;;;;;;;;;;;;;;5003231;28;19937;-77
2023/05/16 00:12:55;;;;;;;;;;;;;;;;;;5020916;28;20031;-77
2023/05/16 00:15:22;;;;;;;;;;;;;;;;;;5008654;28;19929;-76
2023/05/16 00:17:48;;;;;;;;;;;;;;;;;;5014437;28;19967;-78
2023/05/16 00:20:16;;;;;;;;;;;;;;;;;;5037893;28;19909;-77
2023/05/16 00:22:41;;;;;;;;;;;;;;;;;;5015484;28;20289;-76
2023/05/16 00:25:08;;;;;;;;;;;;;;;;;;5024917;28;19913;-76
2023/05/16 00:27:33;;;;;;;;;;;;;;;;;;5027034;28;19917;-77
2023/05/16 00:29:59;;;;;;;;;;;;;;;;;;5021351;28;19917;-74
2023/05/16 00:32:24;;;;;;;;;;;;;;;;;;5001933;28;20369;-77
2023/05/16 00:34:50;;;;;;;;;;;;;;;;;;4999812;28;19917;-77
2023/05/16 00:37:15;;;;;;;;;;;;;;;;;;5018757;28;19914;-76
2023/05/16 00:39:40;;;;;;;;;;;;;;;;;;5015254;28;19963;-76
2023/05/16 00:42:06;;;;;;;;;;;;;;;;;;5016459;28;19921;-77
2023/05/16 00:44:31;;;;;;;;;;;;;;;;;;5012335;28;20432;-77
2023/05/16 00:46:59;;;;;;;;;;;;;;;;;;5012842;28;19910;-76
2023/05/16 00:49:24;;;;;;;;;;;;;;;;;;5012853;28;19918;-77
2023/05/16 00:51:50;;;;;;;;;;;;;;;;;;5011784;28;20391;-77
2023/05/16 00:54:16;;;;;;;;;;;;;;;;;;5011682;28;19913;-76
2023/05/16 00:56:41;;;;;;;;;;;;;;;;;;5012840;28;19921;-78
2023/05/16 00:59:08;;;;;;;;;;;;;;;;;;5011643;28;20462;-76
2023/05/16 01:01:33;;;;;;;;;;;;;;;;;;4995461;28;19917;-77
2023/05/16 01:03:59;;;;;;;;;;;;;;;;;;5006162;28;19913;-76
2023/05/16 01:06:25;;;;;;;;;;;;;;;;;;5011857;28;19917;-74
2023/05/16 01:08:51;;;;;;;;;;;;;;;;;;4991721;28;20350;-76
2023/05/16 01:11:17;;;;;;;;;;;;;;;;;;5010385;28;19921;-77
2023/05/16 01:13:42;;;;;;;;;;;;;;;;;;5005266;28;19940;-77
2023/05/16 01:16:08;;;;;;;;;;;;;;;;;;4984372;28;20372;-77
2023/05/16 01:18:33;;;;;;;;;;;;;;;;;;5012549;28;19968;-77
2023/05/16 01:21:02;;;;;;;;;;;;;;;;;;5011845;28;19913;-77
2023/05/16 01:23:28;;;;;;;;;;;;;;;;;;5011694;28;19920;-77
2023/05/16 01:25:53;;;;;;;;;;;;;;;;;;4991756;28;19917;-77
2023/05/16 01:28:18;;;;;;;;;;;;;;;;;;5003455;28;19917;-76
2023/05/16 01:30:44;;;;;;;;;;;;;;;;;;5012317;28;20013;-76
2023/05/16 01:33:09;;;;;;;;;;;;;;;;;;5012293;28;20288;-77
2023/05/16 01:35:34;;;;;;;;;;;;;;;;;;4998928;28;20387;-77
2023/05/16 01:38:00;;;;;;;;;;;;;;;;;;5015348;28;19953;-77
2023/05/16 01:40:26;;;;;;;;;;;;;;;;;;5014069;28;19913;-77
2023/05/16 01:42:52;;;;;;;;;;;;;;;;;;4999056;28;20403;-77
2023/05/16 01:45:19;;;;;;;;;;;;;;;;;;5007760;28;19914;-77
2023/05/16 01:47:45;;;;;;;;;;;;;;;;;;5014670;28;20342;-77
2023/05/16 01:50:10;;;;;;;;;;;;;;;;;;5014718;28;19917;-76
2023/05/16 01:52:36;;;;;;;;;;;;;;;;;;4998336;28;20332;-76
2023/05/16 01:55:05;;;;;;;;;;;;;;;;;;5015919;28;19917;-75
2023/05/16 01:57:33;;;;;;;;;;;;;;;;;;5014719;28;20308;-78
2023/05/16 01:59:59;;;;;;;;;;;;;;;;;;5016144;28;20000;-77
2023/05/16 02:02:24;;;;;;;;;;;;;;;;;;5015917;28;19949;-75
2023/05/16 02:04:49;;;;;;;;;;;;;;;;;;5014896;28;19914;-78
2023/05/16 02:07:15;;;;;;;;;;;;;;;;;;5015570;28;19921;-77
2023/05/16 02:09:43;;;;;;;;;;;;;;;;;;5004068;28;19913;-77
2023/05/16 02:12:12;;;;;;;;;;;;;;;;;;5015659;28;19959;-77
2023/05/16 02:14:37;;;;;;;;;;;;;;;;;;5015675;28;19913;-76
2023/05/16 02:17:02;;;;;;;;;;;;;;;;;;5015337;28;20444;-77
2023/05/16 02:19:28;;;;;;;;;;;;;;;;;;5012634;28;19917;-77
2023/05/16 02:21:53;;;;;;;;;;;;;;;;;;4993088;28;19917;-76
2023/05/16 02:24:19;;;;;;;;;;;;;;;;;;5010887;28;20000;-77
2023/05/16 02:26:44;;;;;;;;;;;;;;;;;;5009421;28;19918;-77
2023/05/16 02:29:10;;;;;;;;;;;;;;;;;;5014103;28;20376;-77
2023/05/16 02:31:35;;;;;;;;;;;;;;;;;;5015117;28;19925;-76
2023/05/16 02:34:01;;;;;;;;;;;;;;;;;;5013929;28;19920;-77
2023/05/16 02:36:26;;;;;;;;;;;;;;;;;;5015283;28;20296;-77
2023/05/16 02:38:51;;;;;;;;;;;;;;;;;;4997991;28;20428;-77
2023/05/16 02:41:17;;;;;;;;;;;;;;;;;;5014987;28;19913;-77
2023/05/16 02:43:43;;;;;;;;;;;;;;;;;;5014985;28;19917;-76
2023/05/16 02:46:08;;;;;;;;;;;;;;;;;;5013954;28;19963;-77
2023/05/16 02:48:35;;;;;;;;;;;;;;;;;;5013605;28;19921;-77
2023/05/16 02:51:00;;;;;;;;;;;;;;;;;;5014800;28;19917;-75
2023/05/16 02:53:25;;;;;;;;;;;;;;;;;;5013595;28;20296;-77
2023/05/16 02:55:51;;;;;;;;;;;;;;;;;;5013307;28;19914;-76
2023/05/16 02:58:17;;;;;;;;;;;;;;;;;;4997605;28;19917;-77
2023/05/16 03:00:42;;;;;;;;;;;;;;;;;;4997281;28;19947;-77
2023/05/16 03:03:08;;;;;;;;;;;;;;;;;;5013525;28;19914;-76
2023/05/16 03:05:34;;;;;;;;;;;;;;;;;;5014770;28;20285;-76
2023/05/16 03:07:59;;;;;;;;;;;;;;;;;;4997471;28;19913;-77
2023/05/16 03:10:25;;;;;;;;;;;;;;;;;;4997826;28;19924;-77
2023/05/16 03:12:50;;;;;;;;;;;;;;;;;;5016670;28;19921;-77
2023/05/16 03:15:16;;;;;;;;;;;;;;;;;;5017375;28;20428;-77
2023/05/16 03:17:41;;;;;;;;;;;;;;;;;;5015259;28;19924;-76
2023/05/16 03:20:08;;;;;;;;;;;;;;;;;;5015715;28;19948;-77
2023/05/16 03:22:33;;;;;;;;;;;;;;;;;;5004543;28;20392;-76
2023/05/16 03:24:59;;;;;;;;;;;;;;;;;;5022680;28;19996;-77
2023/05/16 03:27:25;;;;;;;;;;;;;;;;;;5010042;28;19917;-77
2023/05/16 03:29:50;;;;;;;;;;;;;;;;;;5027320;28;19942;-76
2023/05/16 03:32:15;;;;;;;;;;;;;;;;;;5018533;28;19913;-76
2023/05/16 03:34:41;;;;;;;;;;;;;;;;;;5026623;28;19937;-76
2023/05/16 03:37:06;;;;;;;;;;;;;;;;;;5023538;28;19952;-76
2023/05/16 03:39:32;;;;;;;;;;;;;;;;;;5025147;28;19913;-76
2023/05/16 03:41:57;;;;;;;;;;;;;;;;;;5000231;28;19920;-77
2023/05/16 03:44:23;;;;;;;;;;;;;;;;;;5013340;28;19917;-76
2023/05/16 03:46:50;;;;;;;;;;;;;;;;;;5012912;28;19913;-77
2023/05/16 03:49:15;;;;;;;;;;;;;;;;;;5013074;28;19914;-77
2023/05/16 03:51:40;;;;;;;;;;;;;;;;;;5013920;28;19921;-77
2023/05/16 03:54:09;;;;;;;;;;;;;;;;;;5012411;28;19913;-76
2023/05/16 03:56:34;;;;;;;;;;;;;;;;;;5013231;28;19913;-76
2023/05/16 03:58:59;;;;;;;;;;;;;;;;;;5013523;28;19917;-77
2023/05/16 04:01:25;;;;;;;;;;;;;;;;;;4995800;28;19914;-76
2023/05/16 04:03:51;;;;;;;;;;;;;;;;;;5012096;28;19914;-77
2023/05/16 04:06:16;;;;;;;;;;;;;;;;;;5013030;28;19968;-77
2023/05/16 04:08:43;;;;;;;;;;;;;;;;;;4988158;28;19914;-77
2023/05/16 04:11:09;;;;;;;;;;;;;;;;;;5010596;28;19925;-77
2023/05/16 04:13:37;;;;;;;;;;;;;;;;;;5013644;28;20427;-77
2023/05/16 04:16:02;;;;;;;;;;;;;;;;;;5013315;28;19913;-77
2023/05/16 04:18:28;;;;;;;;;;;;;;;;;;5013323;28;20383;-77
2023/05/16 04:20:53;;;;;;;;;;;;;;;;;;5012719;28;19914;-76
2023/05/16 04:23:21;;;;;;;;;;;;;;;;;;5012017;28;19913;-76
2023/05/16 04:25:46;;;;;;;;;;;;;;;;;;5013179;28;20067;-76
2023/05/16 04:28:12;;;;;;;;;;;;;;;;;;5013415;28;20403;-77
2023/05/16 04:30:43;;;;;;;;;;;;;;;;;;5014242;28;19928;-76
2023/05/16 04:33:09;;;;;;;;;;;;;;;;;;5012221;28;20381;-77
2023/05/16 04:35:37;;;;;;;;;;;;;;;;;;5012083;28;19921;-77
2023/05/16 04:38:03;;;;;;;;;;;;;;;;;;5012162;28;20340;-77
2023/05/16 04:40:28;;;;;;;;;;;;;;;;;;5011771;28;20376;-76
2023/05/16 04:42:54;;;;;;;;;;;;;;;;;;5012206;28;20024;-77
2023/05/16 04:45:19;;;;;;;;;;;;;;;;;;5011595;28;19940;-76
2023/05/16 04:47:45;;;;;;;;;;;;;;;;;;5010810;28;20383;-77
2023/05/16 04:50:10;;;;;;;;;;;;;;;;;;5011453;28;20339;-77
2023/05/16 04:52:37;;;;;;;;;;;;;;;;;;5011951;28;20339;-77
2023/05/16 04:55:02;;;;;;;;;;;;;;;;;;5012828;28;19954;-77
2023/05/16 04:57:36;;;;;;;;;;;;;;;;;;4997733;28;19914;-77
2023/05/16 05:00:04;;;;;;;;;;;;;;;;;;4995215;28;19923;-77
2023/05/16 05:02:30;;;;;;;;;;;;;;;;;;5011333;28;20003;-77
2023/05/16 05:04:55;;;;;;;;;;;;;;;;;;5011108;28;19960;-76
2023/05/16 05:07:20;;;;;;;;;;;;;;;;;;5010732;28;20292;-77
2023/05/16 05:09:46;;;;;;;;;;;;;;;;;;5010810;28;20232;-77
2023/05/16 05:12:11;;;;;;;;;;;;;;;;;;5011559;28;19921;-77
2023/05/16 05:14:37;;;;;;;;;;;;;;;;;;5011204;28;19921;-77
2023/05/16 05:17:02;;;;;;;;;;;;;;;;;;5012479;28;19917;-77
2023/05/16 05:19:27;;;;;;;;;;;;;;;;;;4995053;28;19956;-76
2023/05/16 05:21:55;;;;;;;;;;;;;;;;;;5012303;28;20384;-77
2023/05/16 05:24:20;;;;;;;;;;;;;;;;;;5011282;28;19913;-76
2023/05/16 05:26:46;;;;;;;;;;;;;;;;;;5011074;28;19960;-77
2023/05/16 05:29:11;;;;;;;;;;;;;;;;;;5009412;28;19976;-76
2023/05/16 05:31:37;;;;;;;;;;;;;;;;;;5012110;28;19917;-77
2023/05/16 05:34:02;;;;;;;;;;;;;;;;;;4978788;28;19924;-77
2023/05/16 05:36:28;;;;;;;;;;;;;;;;;;5012076;28;19919;-77
2023/05/16 05:38:56;;;;;;;;;;;;;;;;;;4995170;28;19936;-77
2023/05/16 05:41:22;;;;;;;;;;;;;;;;;;5010790;28;20262;-76
2023/05/16 05:43:47;;;;;;;;;;;;;;;;;;5010637;28;19920;-76
2023/05/16 05:46:13;;;;;;;;;;;;;;;;;;5011205;28;19924;-77
2023/05/16 05:48:38;;;;;;;;;;;;;;;;;;5011049;28;20439;-77
2023/05/16 05:51:03;;;;;;;;;;;;;;;;;;5011794;28;20299;-77
2023/05/16 05:53:29;;;;;;;;;;;;;;;;;;5011561;28;19917;-77
2023/05/16 05:55:54;;;;;;;;;;;;;;;;;;5010790;28;19914;-77
2023/05/16 05:58:20;;;;;;;;;;;;;;;;;;5010415;28;19914;-77
2023/05/16 06:00:45;;;;;;;;;;;;;;;;;;5010744;28;19992;-76
2023/05/16 06:03:11;;;;;;;;;;;;;;;;;;5011895;28;19917;-77
2023/05/16 06:05:40;;;;;;;;;;;;;;;;;;5020380;22;20020;-77
2023/05/16 06:08:05;;;;;;;;;;;;;;;;;;4995967;28;19918;-77
2023/05/16 06:10:31;;;;;;;;;;;;;;;;;;4990243;28;19925;-77
2023/05/16 06:12:56;;;;;;;;;;;;;;;;;;4975652;28;19919;-77
2023/05/16 06:15:21;;;;;;;;;;;;;;;;;;4999889;28;19932;-77
2023/05/16 06:17:47;;;;;;;;;;;;;;;;;;4994973;28;20001;-76
2023/05/16 06:20:12;;;;;;;;;;;;;;;;;;5001548;28;19914;-78
2023/05/16 06:22:38;;;;;;;;;;;;;;;;;;5010942;28;19920;-77
2023/05/16 06:25:03;;;;;;;;;;;;;;;;;;4998159;28;19957;-76
2023/05/16 06:27:28;;;;;;;;;;;;;;;;;;5001286;28;19968;-77
2023/05/16 06:29:54;;;;;;;;;;;;;;;;;;5009862;28;19940;-76
2023/05/16 06:32:19;;;;;;;;;;;;;;;;;;5014829;28;19902;-79
2023/05/16 06:34:45;;;;;;;;;;;;;;;;;;5000921;28;20020;-80
2023/05/16 06:37:10;;;;;;;;;;;;;;;;;;5012353;28;19913;-84
2023/05/16 06:39:35;;;;;;;;;;;;;;;;;;4983849;28;19924;-85
2023/05/16 06:42:01;;;;;;;;;;;;;;;;;;4997272;28;20361;-85
2023/05/16 06:44:30;;;;;;;;;;;;;;;;;;5019764;28;19929;-81
2023/05/16 06:46:56;;;;;;;;;;;;;;;;;;5022051;28;19917;-84
2023/05/16 06:49:21;;;;;;;;;;;;;;;;;;5000049;28;20000;-84
2023/05/16 06:51:46;;;;;;;;;;;;;;;;;;4994637;28;19968;-84
2023/05/16 06:54:12;;;;;;;;;;;;;;;;;;4987394;28;19940;-84
2023/05/16 06:56:40;;;;;;;;;;;;;;;;;;4995832;28;19914;-84
2023/05/16 06:59:08;;;;;;;;;;;;;;;;;;4995281;28;19949;-85
2023/05/16 07:01:33;;;;;;;;;;;;;;;;;;4995423;28;19963;-84
2023/05/16 07:03:59;;;;;;;;;;;;;;;;;;4962033;28;19914;-83
2023/05/16 07:06:25;;;;;;;;;;;;;;;;;;4979967;28;19998;-85
2023/05/16 07:08:50;;;;;;;;;;;;;;;;;;4977741;28;19921;-84
2023/05/16 07:11:16;;;;;;;;;;;;;;;;;;4993927;28;19921;-84
2023/05/16 07:13:41;;;;;;;;;;;;;;;;;;4993499;28;19961;-83
2023/05/16 07:16:07;;;;;;;;;;;;;;;;;;4996380;28;19989;-85
2023/05/16 07:18:32;;;;;;;;;;;;;;;;;;4996462;28;19956;-85
2023/05/16 07:20:58;;;;;;;;;;;;;;;;;;4958438;28;20351;-84
2023/05/16 07:23:23;;;;;;;;;;;;;;;;;;4978110;28;19924;-85
2023/05/16 07:25:52;;;;;;;;;;;;;;;;;;4977648;28;19921;-84
2023/05/16 07:28:17;;;;;;;;;;;;;;;;;;4994128;28;19914;-85
2023/05/16 07:30:43;;;;;;;;;;;;;;;;;;4993506;28;20341;-85
2023/05/16 07:33:08;;;;;;;;;;;;;;;;;;4978589;28;20024;-85
2023/05/16 07:35:37;;;;;;;;;;;;;;;;;;4995226;28;19914;-85
2023/05/16 07:38:05;;;;;;;;;;;;;;;;;;4995081;28;19921;-85
2023/05/16 07:40:31;;;;;;;;;;;;;;;;;;4995278;28;19914;-83
2023/05/16 07:42:56;;;;;;;;;;;;;;;;;;4993700;28;20381;-84
2023/05/16 07:45:21;;;;;;;;;;;;;;;;;;4994499;28;20004;-85
2023/05/16 07:47:50;;;;;;;;;;;;;;;;;;4986934;28;19914;-84
2023/05/16 07:50:15;;;;;;;;;;;;;;;;;;4993011;28;20269;-85
2023/05/16 07:52:40;;;;;;;;;;;;;;;;;;4994329;28;20400;-82
2023/05/16 07:55:06;;;;;;;;;;;;;;;;;;5013304;28;19984;-83
2023/05/16 07:57:31;;;;;;;;;;;;;;;;;;4994132;28;19914;-81
2023/05/16 07:59:57;;;;;;;;;;;;;;;;;;4986924;28;19922;-84
2023/05/16 08:02:25;;;;;;;;;;;;;;;;;;4994796;28;19921;-84
2023/05/16 08:04:50;;;;;;;;;;;;;;;;;;4994166;28;19976;-81
2023/05/16 08:07:18;;;;;;;;;;;;;;;;;;4992483;28;20005;-84
2023/05/16 08:09:44;;;;;;;;;;;;;;;;;;4978031;28;20015;-84
2023/05/16 08:12:09;;;;;;;;;;;;;;;;;;4990062;28;19925;-82
2023/05/16 08:14:35;;;;;;;;;;;;;;;;;;4989281;28;20385;-85
2023/05/16 08:17:01;;;;;;;;;;;;;;;;;;4993687;28;19918;-83
2023/05/16 08:19:26;;;;;;;;;;;;;;;;;;4993270;28;20365;-81
2023/05/16 08:21:52;;;;;;;;;;;;;;;;;;4988176;28;19921;-81
2023/05/16 08:24:17;;;;;;;;;;;;;;;;;;4976981;28;20349;-82
2023/05/16 08:26:42;;;;;;;;;;;;;;;;;;4993225;28;19980;-85
2023/05/16 08:29:08;;;;;;;;;;;;;;;;;;4993717;28;20389;-80
2023/05/16 08:31:33;;;;;;;;;;;;;;;;;;4989986;28;19968;-80
2023/05/16 08:34:00;;;;;;;;;;;;;;;;;;4993930;28;19953;-79
2023/05/16 08:36:26;;;;;;;;;;;;;;;;;;4992708;28;19921;-80
2023/05/16 08:38:51;;;;;;;;;;;;;;;;;;4989780;28;19914;-81
2023/05/16 08:41:16;;;;;;;;;;;;;;;;;;4993135;28;19918;-81
2023/05/16 08:43:42;;;;;;;;;;;;;;;;;;4992661;28;19917;-80
2023/05/16 08:46:07;;;;;;;;;;;;;;;;;;4989991;28;19922;-81
2023/05/16 08:48:32;;;;;;;;;;;;;;;;;;4987336;28;19921;-85
2023/05/16 08:50:58;;;;;;;;;;;;;;;;;;4993775;28;19929;-86
2023/05/16 08:53:26;;;;;;;;;;;;;;;;;;4995754;28;19921;-86
2023/05/16 08:55:51;;;;;;;;;;;;;;;;;;4994753;28;20376;-86
2023/05/16 08:58:17;;;;;;;;;;;;;;;;;;4994790;28;20005;-86
2023/05/16 09:00:42;;;;;;;;;;;;;;;;;;4977386;28;19920;-85
2023/05/16 09:03:08;;;;;;;;;;;;;;;;;;4997455;28;20008;-87
2023/05/16 09:05:36;;;;;;;;;;;;;;;;;;4998508;28;20377;-87
2023/05/16 09:08:01;;;;;;;;;;;;;;;;;;5007319;28;19956;-87
2023/05/16 09:10:27;;;;;;;;;;;;;;;;;;5009895;28;19933;-87
2023/05/16 09:12:52;;;;;;;;;;;;;;;;;;4997735;28;19906;-87
2023/05/16 09:15:17;;;;;;;;;;;;;;;;;;5015027;28;19913;-85
2023/05/16 09:17:43;;;;;;;;;;;;;;;;;;5016775;28;19901;-86
2023/05/16 09:20:11;;;;;;;;;;;;;;;;;;5016683;28;19912;-86
2023/05/16 09:22:36;;;;;;;;;;;;;;;;;;5017052;28;19914;-86
2023/05/16 09:25:02;;;;;;;;;;;;;;;;;;5012011;28;19914;-85
2023/05/16 09:27:28;;;;;;;;;;;;;;;;;;5009211;28;19928;-83
2023/05/16 09:29:53;;;;;;;;;;;;;;;;;;5004193;28;20309;-83
2023/05/16 09:32:19;;;;;;;;;;;;;;;;;;4998792;28;19914;-83
2023/05/16 09:34:46;;;;;;;;;;;;;;;;;;4996838;28;19968;-82
2023/05/16 09:37:12;;;;;;;;;;;;;;;;;;4992543;28;19914;-81
2023/05/16 09:39:40;;;;;;;;;;;;;;;;;;4989498;28;19972;-83
2023/05/16 09:42:06;;;;;;;;;;;;;;;;;;4963646;28;20400;-87
2023/05/16 09:44:31;;;;;;;;;;;;;;;;;;4973207;28;19921;-86
2023/05/16 09:46:56;;;;;;;;;;;;;;;;;;5000250;28;19997;-85
2023/05/16 09:49:23;;;;;;;;;;;;;;;;;;4991074;28;19913;-86
2023/05/16 09:51:48;;;;;;;;;;;;;;;;;;4991782;28;20362;-86
2023/05/16 09:54:14;;;;;;;;;;;;;;;;;;4976918;28;19921;-86
2023/05/16 09:56:42;;;;;;;;;;;;;;;;;;4998767;28;19913;-85
2023/05/16 09:59:08;;;;;;;;;;;;;;;;;;4996626;28;19964;-86
2023/05/16 10:01:33;;;;;;;;;;;;;;;;;;4999600;28;19913;-85
2023/05/16 10:03:59;;;;;;;;;;;;;;;;;;5003146;28;19913;-77
2023/05/16 10:06:24;;;;;;;;;;;;;;;;;;4995692;28;19918;-77
2023/05/16 10:08:50;;;;;;;;;;;;;;;;;;4996533;28;20328;-76
2023/05/16 10:11:15;;;;;;;;;;;;;;;;;;4977976;28;19918;-77
2023/05/16 10:13:41;;;;;;;;;;;;;;;;;;5006109;28;19956;-78
2023/05/16 10:16:07;;;;;;;;;;;;;;;;;;4994266;28;19918;-76
2023/05/16 10:18:33;;;;;;;;;;;;;;;;;;4994159;28;20434;-76
2023/05/16 10:20:58;;;;;;;;;;;;;;;;;;4994806;28;20267;-78
2023/05/16 10:23:26;;;;;;;;;;;;;;;;;;4996108;28;19914;-78
2023/05/16 10:25:51;;;;;;;;;;;;;;;;;;4994681;28;20293;-76
2023/05/16 10:28:17;;;;;;;;;;;;;;;;;;4993418;28;20385;-77
2023/05/16 10:30:43;;;;;;;;;;;;;;;;;;4990773;28;20049;-76
2023/05/16 10:33:08;;;;;;;;;;;;;;;;;;5009601;28;20345;-77
2023/05/16 10:35:34;;;;;;;;;;;;;;;;;;4992347;28;19921;-75
2023/05/16 10:37:59;;;;;;;;;;;;;;;;;;4978248;28;20436;-77
2023/05/16 10:40:25;;;;;;;;;;;;;;;;;;4977658;28;19957;-76
2023/05/16 10:42:50;;;;;;;;;;;;;;;;;;4996035;28;19995;-78
2023/05/16 10:45:15;;;;;;;;;;;;;;;;;;4995615;28;20300;-78
2023/05/16 10:47:41;;;;;;;;;;;;;;;;;;4995311;28;19953;-77
2023/05/16 10:50:06;;;;;;;;;;;;;;;;;;4975353;28;19928;-77
2023/05/16 10:52:32;;;;;;;;;;;;;;;;;;5000468;28;19913;-78
2023/05/16 10:54:57;;;;;;;;;;;;;;;;;;5000373;28;19914;-77
2023/05/16 10:57:23;;;;;;;;;;;;;;;;;;4990177;28;19941;-78
2023/05/16 10:59:48;;;;;;;;;;;;;;;;;;4965511;28;19921;-79
2023/05/16 11:02:14;;;;;;;;;;;;;;;;;;4978329;28;19938;-77
2023/05/16 11:04:39;;;;;;;;;;;;;;;;;;4994378;28;19967;-77
2023/05/16 11:07:07;;;;;;;;;;;;;;;;;;4992072;28;20277;-78
2023/05/16 11:09:33;;;;;;;;;;;;;;;;;;4988760;28;19920;-77
2023/05/16 11:11:58;;;;;;;;;;;;;;;;;;4994347;28;19917;-77
2023/05/16 11:14:24;;;;;;;;;;;;;;;;;;4990076;28;19914;-76
2023/05/16 11:16:50;;;;;;;;;;;;;;;;;;5004449;28;20007;-77
2023/05/16 11:19:15;;;;;;;;;;;;;;;;;;4995427;28;19914;-75
2023/05/16 11:21:40;;;;;;;;;;;;;;;;;;5000708;28;19913;-76
2023/05/16 11:24:09;;;;;;;;;;;;;;;;;;4994248;28;19914;-77
2023/05/16 11:26:34;;;;;;;;;;;;;;;;;;4992724;28;20280;-77
2023/05/16 11:29:01;;;;;;;;;;;;;;;;;;5000958;28;19920;-76
2023/05/16 11:31:26;;;;;;;;;;;;;;;;;;4991385;28;20416;-77
2023/05/16 11:33:55;;;;;;;;;;;;;;;;;;4993363;28;19920;-77
2023/05/16 11:36:21;;;;;;;;;;;;;;;;;;4977161;28;20004;-77
2023/05/16 11:38:46;;;;;;;;;;;;;;;;;;4994533;28;19953;-76
2023/05/16 11:41:14;;;;;;;;;;;;;;;;;;4992232;28;19921;-76
2023/05/16 11:43:40;;;;;;;;;;;;;;;;;;4993919;28;19913;-77
2023/05/16 11:46:06;;;;;;;;;;;;;;;;;;4993719;28;20372;-76
2023/05/16 11:48:31;;;;;;;;;;;;;;;;;;4994067;28;19913;-77
2023/05/16 11:50:57;;;;;;;;;;;;;;;;;;4992633;28;19918;-77
2023/05/16 11:53:23;;;;;;;;;;;;;;;;;;4994248;28;19917;-75
2023/05/16 11:55:51;;;;;;;;;;;;;;;;;;4986661;28;20230;-77
2023/05/16 11:58:16;;;;;;;;;;;;;;;;;;4991562;28;19918;-78
2023/05/16 12:00:42;;;;;;;;;;;;;;;;;;4987853;28;20009;-77
2023/05/16 12:03:07;;;;;;;;;;;;;;;;;;4989257;28;19921;-76
2023/05/16 12:08:08;;;;;;;;;;;;;;;;;;5014531;28;19926;-78
2023/05/16 12:10:34;;;;;;;;;;;;;;;;;;5000877;28;19921;-78
2023/05/16 12:13:00;;;;;;;;;;;;;;;;;;5032876;28;20379;-79
2023/05/16 12:15:25;;;;;;;;;;;;;;;;;;4983426;28;20365;-78
2023/05/16 12:17:51;;;;;;;;;;;;;;;;;;5030501;28;19914;-78
2023/05/16 12:20:17;;;;;;;;;;;;;;;;;;5035929;28;19914;-77
2023/05/16 12:22:43;;;;;;;;;;;;;;;;;;4999602;28;19918;-79
2023/05/16 12:25:08;;;;;;;;;;;;;;;;;;4983824;28;19962;-78
2023/05/16 12:27:33;;;;;;;;;;;;;;;;;;4998756;28;19985;-78
2023/05/16 12:29:59;;;;;;;;;;;;;;;;;;4995143;28;20315;-81
2023/05/16 12:32:25;;;;;;;;;;;;;;;;;;4993587;28;19937;-77
2023/05/16 12:34:55;;;;;;;;;;;;;;;;;;4992794;28;19937;-78
2023/05/16 12:37:21;;;;;;;;;;;;;;;;;;4976150;28;19913;-78
2023/05/16 12:39:47;;;;;;;;;;;;;;;;;;4992776;28;19921;-79
2023/05/16 12:42:12;;;;;;;;;;;;;;;;;;4991627;28;19957;-79
2023/05/16 12:44:38;;;;;;;;;;;;;;;;;;4992768;28;19917;-79
2023/05/16 12:47:07;;;;;;;;;;;;;;;;;;4992371;28;20020;-78
2023/05/16 12:49:32;;;;;;;;;;;;;;;;;;4991878;28;19975;-78
2023/05/16 12:52:04;;;;;;;;;;;;;;;;;;5007906;28;20273;-78
2023/05/16 12:54:33;;;;;;;;;;;;;;;;;;5024457;28;19914;-78
2023/05/16 12:56:59;;;;;;;;;;;;;;;;;;5008356;28;19986;-78
2023/05/16 12:59:25;;;;;;;;;;;;;;;;;;4993921;28;20265;-78
2023/05/16 13:01:51;;;;;;;;;;;;;;;;;;4977950;28;19913;-78
2023/05/16 13:04:19;;;;;;;;;;;;;;;;;;4977894;28;19921;-78
2023/05/16 13:06:45;;;;;;;;;;;;;;;;;;5023644;28;19949;-78
2023/05/16 13:09:11;;;;;;;;;;;;;;;;;;4993107;28;19913;-78
2023/05/16 13:11:37;;;;;;;;;;;;;;;;;;4992676;28;19924;-78
2023/05/16 13:14:03;;;;;;;;;;;;;;;;;;4992950;28;19918;-78
2023/05/16 13:16:28;;;;;;;;;;;;;;;;;;5007608;28;19953;-78
2023/05/16 13:18:54;;;;;;;;;;;;;;;;;;5024262;28;19913;-78
2023/05/16 13:21:21;;;;;;;;;;;;;;;;;;5007702;28;20296;-79
2023/05/16 13:23:46;;;;;;;;;;;;;;;;;;4992540;28;19913;-78
2023/05/16 13:26:12;;;;;;;;;;;;;;;;;;4995621;28;20009;-81
2023/05/16 13:28:37;;;;;;;;;;;;;;;;;;4992589;28;19921;-85
2023/05/16 13:31:03;;;;;;;;;;;;;;;;;;4993117;28;19918;-86
2023/05/16 13:33:29;;;;;;;;;;;;;;;;;;5244309;22;20003;-87
2023/05/16 13:35:55;;;;;;;;;;;;;;;;;;5032335;28;20014;-87
2023/05/16 13:38:21;;;;;;;;;;;;;;;;;;5015499;28;19914;-86
2023/05/16 13:40:46;;;;;;;;;;;;;;;;;;5031472;28;19913;-85
2023/05/16 13:43:15;;;;;;;;;;;;;;;;;;5031688;28;19917;-85
2023/05/16 13:45:40;;;;;;;;;;;;;;;;;;4998412;28;19924;-85
2023/05/16 13:48:06;;;;;;;;;;;;;;;;;;5030698;28;19913;-85
2023/05/16 13:50:32;;;;;;;;;;;;;;;;;;5014034;28;20376;-84
2023/05/16 13:52:57;;;;;;;;;;;;;;;;;;5000943;28;19918;-86
2023/05/16 13:55:23;;;;;;;;;;;;;;;;;;5035517;28;20011;-84
2023/05/16 13:57:49;;;;;;;;;;;;;;;;;;5034348;28;19920;-84
2023/05/16 14:00:18;;;;;;;;;;;;;;;;;;5011019;28;19913;-84
2023/05/16 14:02:43;;;;;;;;;;;;;;;;;;5018746;28;19967;-85
2023/05/16 14:05:09;;;;;;;;;;;;;;;;;;4998325;28;19917;-84
2023/05/16 14:07:35;;;;;;;;;;;;;;;;;;5030733;28;19913;-84
2023/05/16 14:10:01;;;;;;;;;;;;;;;;;;5033979;28;19920;-85
2023/05/16 14:12:26;;;;;;;;;;;;;;;;;;5035315;28;20419;-84
2023/05/16 14:14:53;;;;;;;;;;;;;;;;;;5034091;28;19917;-84
2023/05/16 14:17:22;;;;;;;;;;;;;;;;;;5031683;28;19913;-84
2023/05/16 14:19:52;;;;;;;;;;;;;;;;;;5008783;28;20376;-84
2023/05/16 14:22:20;;;;;;;;;;;;;;;;;;5018420;28;19914;-85
2023/05/16 14:24:46;;;;;;;;;;;;;;;;;;5030743;28;19925;-84
2023/05/16 14:27:13;;;;;;;;;;;;;;;;;;5031237;28;19920;-78
2023/05/16 14:29:39;;;;;;;;;;;;;;;;;;5030332;28;19970;-84
2023/05/16 14:32:09;;;;;;;;;;;;;;;;;;5029811;28;19925;-83
2023/05/16 14:34:34;;;;;;;;;;;;;;;;;;5030390;28;19917;-83
2023/05/16 14:37:00;;;;;;;;;;;;;;;;;;5030566;28;20287;-83
2023/05/16 14:39:26;;;;;;;;;;;;;;;;;;5014099;28;19920;-83
2023/05/16 14:41:54;;;;;;;;;;;;;;;;;;5001499;28;20298;-82
2023/05/16 14:44:20;;;;;;;;;;;;;;;;;;5042905;28;19967;-84
2023/05/16 14:46:46;;;;;;;;;;;;;;;;;;5034738;28;19913;-83
2023/05/16 14:49:11;;;;;;;;;;;;;;;;;;5034391;28;20388;-81
2023/05/16 14:51:37;;;;;;;;;;;;;;;;;;5032718;28;20380;-84
2023/05/16 14:54:03;;;;;;;;;;;;;;;;;;5034458;28;19936;-80
2023/05/16 14:56:30;;;;;;;;;;;;;;;;;;5020423;28;19913;-81
2023/05/16 14:58:56;;;;;;;;;;;;;;;;;;5035943;28;19913;-80
2023/05/16 15:01:21;;;;;;;;;;;;;;;;;;5030867;28;19917;-80
2023/05/16 15:03:47;;;;;;;;;;;;;;;;;;5038965;28;19963;-82
2023/05/16 15:06:13;;;;;;;;;;;;;;;;;;5041368;28;19920;-82
2023/05/16 15:08:38;;;;;;;;;;;;;;;;;;5043164;28;19969;-83
2023/05/16 15:11:06;;;;;;;;;;;;;;;;;;5049127;28;19948;-82
2023/05/16 15:13:32;;;;;;;;;;;;;;;;;;5049468;28;19913;-84
2023/05/16 15:16:03;;;;;;;;;;;;;;;;;;5052001;28;19908;-82
2023/05/16 15:18:29;;;;;;;;;;;;;;;;;;5043304;28;19936;-83
2023/05/16 15:20:55;;;;;;;;;;;;;;;;;;5020436;28;19913;-84
2023/05/16 15:23:21;;;;;;;;;;;;;;;;;;5035350;28;19913;-83
2023/05/16 15:25:46;;;;;;;;;;;;;;;;;;5034216;28;19913;-82
2023/05/16 15:28:12;;;;;;;;;;;;;;;;;;5033888;28;19956;-84
2023/05/16 15:30:37;;;;;;;;;;;;;;;;;;5035142;28;20321;-83
2023/05/16 15:33:03;;;;;;;;;;;;;;;;;;5032795;28;19940;-83
2023/05/16 15:35:29;;;;;;;;;;;;;;;;;;5032655;28;19935;-81
2023/05/16 15:37:56;;;;;;;;;;;;;;;;;;5001880;28;20245;-81
2023/05/16 15:40:21;;;;;;;;;;;;;;;;;;5014470;28;20127;-83
2023/05/16 15:42:47;;;;;;;;;;;;;;;;;;5025361;28;19944;-86
2023/05/16 15:45:13;;;;;;;;;;;;;;;;;;5032995;28;19917;-86
2023/05/16 15:47:38;;;;;;;;;;;;;;;;;;5033183;28;19913;-86
2023/05/16 15:50:07;;;;;;;;;;;;;;;;;;5033603;28;19914;-86
2023/05/16 15:52:34;;;;;;;;;;;;;;;;;;5032221;28;20004;-85
2023/05/16 15:55:00;;;;;;;;;;;;;;;;;;5032536;28;19921;-86
2023/05/16 15:57:25;;;;;;;;;;;;;;;;;;5028424;28;19914;-87
2023/05/16 15:59:51;;;;;;;;;;;;;;;;;;5018415;28;19917;-85
2023/05/16 16:02:17;;;;;;;;;;;;;;;;;;5001869;28;19913;-86
2023/05/16 16:04:43;;;;;;;;;;;;;;;;;;5025939;28;19913;-86
2023/05/16 16:07:09;;;;;;;;;;;;;;;;;;5034750;28;19936;-88
2023/05/16 16:09:35;;;;;;;;;;;;;;;;;;5026370;28;19914;-87
2023/05/16 16:12:01;;;;;;;;;;;;;;;;;;5035214;28;19917;-88
2023/05/16 16:14:26;;;;;;;;;;;;;;;;;;5036893;28;19949;-86
2023/05/16 16:16:52;;;;;;;;;;;;;;;;;;5022974;28;20284;-87
2023/05/16 16:19:17;;;;;;;;;;;;;;;;;;5028619;28;19913;-86
2023/05/16 16:21:43;;;;;;;;;;;;;;;;;;5014540;28;20288;-85
2023/05/16 16:24:08;;;;;;;;;;;;;;;;;;5041220;28;19988;-87
2023/05/16 16:26:34;;;;;;;;;;;;;;;;;;5011309;28;20433;-86
2023/05/16 16:29:00;;;;;;;;;;;;;;;;;;5039972;28;19914;-86
2023/05/16 16:31:25;;;;;;;;;;;;;;;;;;5031027;28;19939;-86
2023/05/16 16:33:56;;;;;;;;;;;;;;;;;;5038846;28;19925;-87
2023/05/16 16:36:24;;;;;;;;;;;;;;;;;;5011768;28;20044;-86
2023/05/16 16:38:50;;;;;;;;;;;;;;;;;;5011827;28;19917;-87